createdAt,value
2023-02-23T00:01:22.607Z,92.10
2023-02-23T00:03:50.354Z,92.40
2023-02-23T00:06:20.097Z,92.00
2023-02-23T00:08:47.920Z,92.30
2023-02-23T00:11:17.232Z,92.50
2023-02-23T00:13:46.507Z,91.80
2023-02-23T00:16:16.596Z,91.60
2023-02-23T00:18:50.835Z,91.70
2023-02-23T00:21:20.972Z,91.60
2023-02-23T00:23:50.443Z,91.50
2023-02-23T00:26:20.782Z,91.70
2023-02-23T00:28:51.130Z,92.00
2023-02-23T00:31:19.195Z,91.90
2023-02-23T00:33:46.142Z,91.80
2023-02-23T00:36:14.993Z,91.90
2023-02-23T00:38:42.367Z,91.90
2023-02-23T00:41:20.596Z,91.60
2023-02-23T00:43:47.633Z,91.70
2023-02-23T00:46:21.174Z,91.60
2023-02-23T00:48:49.375Z,91.50
2023-02-23T00:51:18.220Z,91.30
2023-02-23T00:53:45.377Z,91.30
2023-02-23T00:56:14.365Z,91.40
2023-02-23T00:58:41.610Z,91.40
2023-02-23T01:01:13.258Z,91.40
2023-02-23T01:03:41.709Z,91.60
2023-02-23T01:06:11.650Z,91.30
2023-02-23T01:08:44.098Z,91.80
2023-02-23T01:11:21.214Z,92.40
2023-02-23T01:13:49.461Z,92.60
2023-02-23T01:16:18.841Z,92.70
2023-02-23T01:18:46.612Z,92.50
2023-02-23T01:21:22.767Z,92.40
2023-02-23T01:23:50.773Z,92.30
2023-02-23T01:26:23.270Z,92.20
2023-02-23T01:28:51.525Z,92.50
2023-02-23T01:31:19.690Z,92.20
2023-02-23T01:33:46.686Z,92.30
2023-02-23T01:36:13.726Z,92.10
2023-02-23T01:38:41.225Z,91.50
2023-02-23T01:41:09.068Z,92.00
2023-02-23T01:43:37.004Z,92.00
2023-02-23T01:46:04.171Z,92.00
2023-02-23T01:48:37.965Z,91.90
2023-02-23T01:51:14.721Z,92.30
2023-02-23T01:53:50.623Z,92.60
2023-02-23T01:56:23.619Z,92.30
2023-02-23T01:58:52.852Z,92.40
2023-02-23T02:01:20.041Z,92.20
2023-02-23T02:03:58.778Z,92.00
2023-02-23T02:06:30.403Z,92.20
2023-02-23T02:09:06.595Z,92.10
2023-02-23T02:11:38.897Z,92.00
2023-02-23T02:14:14.864Z,91.80
2023-02-23T02:16:52.732Z,91.90
2023-02-23T02:20:12.681Z,92.10
2023-02-23T02:22:57.530Z,92.40
2023-02-23T02:26:05.092Z,92.30
2023-02-23T02:28:50.572Z,92.50
2023-02-23T02:31:51.517Z,92.30
2023-02-23T02:34:42.725Z,92.50
2023-02-23T02:37:39.540Z,92.60
2023-02-23T02:40:32.409Z,92.50
2023-02-23T02:43:21.167Z,92.40
2023-02-23T02:46:02.052Z,92.60
2023-02-23T02:48:36.664Z,92.80
2023-02-23T02:51:24.843Z,92.80
2023-02-23T02:54:13.405Z,92.90
2023-02-23T02:56:42.926Z,92.70
2023-02-23T02:59:32.152Z,92.90
2023-02-23T03:02:18.148Z,92.80
2023-02-23T03:05:03.611Z,92.50
2023-02-23T03:08:14.663Z,92.40
2023-02-23T03:11:21.915Z,92.20
2023-02-23T03:14:29.851Z,92.20
2023-02-23T03:17:27.329Z,92.00
2023-02-23T03:20:19.480Z,92.10
2023-02-23T03:23:16.978Z,92.20
2023-02-23T03:26:15.610Z,92.20
2023-02-23T03:29:32.152Z,92.30
2023-02-23T03:32:37.222Z,92.10
2023-02-23T03:35:37.879Z,92.20
2023-02-23T03:38:33.084Z,92.40
2023-02-23T03:41:19.323Z,92.30
2023-02-23T03:44:13.493Z,92.40
2023-02-23T03:46:59.399Z,92.70
2023-02-23T03:49:50.312Z,92.90
2023-02-23T03:52:43.293Z,92.90
2023-02-23T03:55:35.109Z,92.80
2023-02-23T03:58:23.788Z,92.50
2023-02-23T04:01:15.061Z,92.70
2023-02-23T04:04:03.013Z,92.70
2023-02-23T04:06:54.483Z,92.80
2023-02-23T04:09:39.800Z,92.80
2023-02-23T04:12:33.192Z,92.30
2023-02-23T04:15:04.683Z,92.40
2023-02-23T04:17:32.318Z,92.20
2023-02-23T04:19:59.206Z,92.40
2023-02-23T04:22:25.937Z,92.40
2023-02-23T04:24:52.690Z,92.10
2023-02-23T04:27:20.386Z,92.00
2023-02-23T04:29:47.128Z,92.30
2023-02-23T04:32:16.554Z,92.00
2023-02-23T04:34:44.315Z,92.30
2023-02-23T04:37:11.291Z,92.00
2023-02-23T04:39:38.370Z,92.30
2023-02-23T04:42:05.215Z,92.50
2023-02-23T04:44:31.922Z,92.40
2023-02-23T04:46:58.899Z,91.80
2023-02-23T04:49:25.646Z,92.50
2023-02-23T04:51:52.368Z,92.20
2023-02-23T04:54:19.076Z,92.10
2023-02-23T04:56:45.874Z,92.40
2023-02-23T04:59:13.247Z,92.60
2023-02-23T05:01:40.139Z,92.50
2023-02-23T05:04:06.853Z,92.60
2023-02-23T05:06:34.143Z,92.70
2023-02-23T05:09:00.871Z,92.70
2023-02-23T05:11:27.771Z,92.50
2023-02-23T05:13:54.693Z,92.60
2023-02-23T05:16:21.736Z,92.60
2023-02-23T05:18:49.408Z,92.50
2023-02-23T05:21:16.525Z,93.20
2023-02-23T05:23:43.500Z,93.20
2023-02-23T05:26:12.640Z,93.30
2023-02-23T05:28:41.413Z,93.30
2023-02-23T05:31:08.795Z,93.30
2023-02-23T05:33:42.549Z,93.10
2023-02-23T05:36:16.312Z,93.20
2023-02-23T05:38:44.280Z,93.20
2023-02-23T05:41:13.511Z,93.20
2023-02-23T05:43:40.343Z,93.40
2023-02-23T05:46:12.130Z,93.20
2023-02-23T05:48:39.222Z,93.20
2023-02-23T05:51:10.800Z,93.20
2023-02-23T05:53:38.306Z,93.10
2023-02-23T05:56:06.684Z,93.30
2023-02-23T05:58:33.463Z,92.60
2023-02-23T06:01:00.371Z,93.10
2023-02-23T06:03:27.590Z,93.10
2023-02-23T06:05:56.950Z,93.20
2023-02-23T06:08:25.506Z,93.00
2023-02-23T06:10:53.290Z,92.70
2023-02-23T06:13:21.230Z,92.30
2023-02-23T06:15:49.520Z,92.30
2023-02-23T06:18:17.559Z,92.70
2023-02-23T06:20:45.793Z,92.50
2023-02-23T06:23:12.673Z,92.40
2023-02-23T06:25:40.822Z,92.50
2023-02-23T06:28:08.868Z,92.70
2023-02-23T06:30:36.113Z,92.70
2023-02-23T06:33:03.205Z,92.70
2023-02-23T06:35:30.001Z,92.50
2023-02-23T06:37:57.011Z,92.50
2023-02-23T06:40:23.919Z,92.60
2023-02-23T06:42:50.968Z,93.00
2023-02-23T06:45:19.297Z,92.70
2023-02-23T06:47:47.113Z,92.80
2023-02-23T06:50:14.930Z,92.70
2023-02-23T06:52:41.875Z,92.60
2023-02-23T06:55:10.135Z,92.90
2023-02-23T06:57:36.936Z,93.00
2023-02-23T07:00:04.687Z,93.00
2023-02-23T07:02:31.834Z,93.00
2023-02-23T07:04:58.891Z,92.90
2023-02-23T07:07:25.689Z,92.60
2023-02-23T07:09:52.396Z,92.60
2023-02-23T07:12:19.141Z,92.90
2023-02-23T07:14:45.905Z,92.80
2023-02-23T07:17:12.938Z,92.90
2023-02-23T07:19:39.829Z,92.70
2023-02-23T07:22:06.609Z,92.50
2023-02-23T07:24:33.355Z,92.00
2023-02-23T07:27:00.096Z,91.90
2023-02-23T07:29:28.163Z,91.90
2023-02-23T07:31:55.489Z,91.70
2023-02-23T07:34:22.353Z,91.60
2023-02-23T07:36:49.371Z,91.90
2023-02-23T07:39:16.217Z,91.70
2023-02-23T07:41:42.952Z,91.90
2023-02-23T07:44:09.766Z,91.60
2023-02-23T07:46:36.496Z,91.20
2023-02-23T07:49:03.405Z,91.10
2023-02-23T07:51:30.181Z,91.20
2023-02-23T07:53:56.924Z,91.40
2023-02-23T07:56:23.682Z,91.50
2023-02-23T07:58:50.471Z,91.20
2023-02-23T08:01:18.605Z,91.20
2023-02-23T08:03:49.461Z,91.20
2023-02-23T08:06:17.587Z,91.00
2023-02-23T08:08:44.567Z,91.00
2023-02-23T08:11:11.869Z,91.20
2023-02-23T08:13:39.053Z,91.40
2023-02-23T08:16:06.104Z,91.20
2023-02-23T08:18:33.068Z,91.50
2023-02-23T08:21:04.314Z,91.60
2023-02-23T08:23:32.474Z,91.50
2023-02-23T08:26:00.863Z,91.20
2023-02-23T08:28:28.723Z,91.20
2023-02-23T08:30:55.665Z,91.00
2023-02-23T08:33:22.691Z,91.00
2023-02-23T08:35:49.443Z,90.30
2023-02-23T08:38:18.303Z,89.60
2023-02-23T08:40:45.300Z,89.20
2023-02-23T08:43:12.053Z,89.30
2023-02-23T08:45:39.565Z,89.00
2023-02-23T08:48:07.619Z,88.10
2023-02-23T08:50:34.811Z,88.30
2023-02-23T08:53:01.632Z,88.20
2023-02-23T08:55:28.555Z,87.90
2023-02-23T08:57:55.325Z,87.70
2023-02-23T09:00:22.540Z,87.10
2023-02-23T09:02:49.272Z,85.90
2023-02-23T09:05:16.895Z,86.00
2023-02-23T09:07:45.279Z,85.20
2023-02-23T09:10:19.782Z,84.90
2023-02-23T09:12:46.585Z,85.00
2023-02-23T09:15:13.339Z,84.50
2023-02-23T09:17:42.789Z,85.00
2023-02-23T09:20:13.460Z,85.20
2023-02-23T09:22:41.945Z,84.30
2023-02-23T09:25:10.384Z,83.50
2023-02-23T09:27:37.105Z,83.30
2023-02-23T09:30:04.820Z,82.90
2023-02-23T09:32:32.179Z,82.80
2023-02-23T09:34:58.979Z,82.50
2023-02-23T09:37:25.748Z,83.70
2023-02-23T09:39:52.512Z,83.60
2023-02-23T09:42:41.377Z,82.40
2023-02-23T09:45:48.398Z,82.40
2023-02-23T09:48:20.514Z,82.40
2023-02-23T09:50:51.037Z,82.00
2023-02-23T09:53:36.270Z,82.10
2023-02-23T09:56:26.466Z,80.00
2023-02-23T09:58:53.302Z,80.40
2023-02-23T10:01:58.459Z,80.40
2023-02-23T10:04:36.348Z,81.20
2023-02-23T10:07:12.870Z,80.40
2023-02-23T10:10:00.144Z,80.80
2023-02-23T10:12:26.916Z,80.70
2023-02-23T10:15:18.521Z,80.00
2023-02-23T10:18:13.721Z,81.10
2023-02-23T10:21:04.681Z,81.50
2023-02-23T10:23:42.804Z,81.90
2023-02-23T10:26:16.398Z,82.20
2023-02-23T10:28:44.544Z,81.10
2023-02-23T10:31:54.149Z,81.50
2023-02-23T10:34:23.517Z,80.80
2023-02-23T10:37:06.197Z,80.30
2023-02-23T10:39:34.021Z,79.60
2023-02-23T10:42:07.759Z,78.90
2023-02-23T10:44:34.650Z,80.00
2023-02-23T10:47:21.157Z,79.80
2023-02-23T10:49:51.350Z,79.00
2023-02-23T10:52:33.245Z,78.20
2023-02-23T10:55:00.545Z,79.20
2023-02-23T10:57:30.936Z,78.60
2023-02-23T11:00:08.664Z,78.70
2023-02-23T11:02:36.520Z,77.80
2023-02-23T11:05:05.953Z,79.00
2023-02-23T11:07:34.443Z,79.60
2023-02-23T11:10:26.434Z,79.20
2023-02-23T11:12:53.288Z,78.40
2023-02-23T11:15:46.489Z,78.40
2023-02-23T11:18:22.769Z,78.70
2023-02-23T11:20:51.109Z,79.20
2023-02-23T11:23:31.685Z,78.80
2023-02-23T11:26:06.149Z,79.00
2023-02-23T11:28:41.344Z,78.60
2023-02-23T11:31:23.553Z,80.70
2023-02-23T11:33:53.665Z,79.60
2023-02-23T11:36:26.805Z,79.60
2023-02-23T11:39:23.456Z,80.30
2023-02-23T11:42:14.852Z,81.50
2023-02-23T11:44:42.818Z,80.00
2023-02-23T11:47:19.218Z,80.30
2023-02-23T11:49:48.520Z,81.40
2023-02-23T11:52:18.757Z,80.70
2023-02-23T11:54:54.298Z,80.90
2023-02-23T11:57:23.864Z,80.00
2023-02-23T11:59:51.953Z,79.60
2023-02-23T12:02:25.692Z,80.20
2023-02-23T12:05:01.668Z,79.50
2023-02-23T12:08:06.831Z,80.20
2023-02-23T12:11:05.408Z,80.40
2023-02-23T12:13:37.970Z,80.40
2023-02-23T12:16:29.511Z,79.80
2023-02-23T12:19:14.815Z,78.50
2023-02-23T12:21:47.470Z,78.30
2023-02-23T12:24:26.168Z,78.10
2023-02-23T12:27:06.306Z,78.20
2023-02-23T12:29:54.742Z,78.00
2023-02-23T12:32:26.854Z,78.20
2023-02-23T12:34:59.213Z,77.40
2023-02-23T12:37:37.002Z,77.20
2023-02-23T12:40:21.464Z,77.70
2023-02-23T12:43:12.774Z,77.50
2023-02-23T12:45:48.991Z,76.70
2023-02-23T12:48:18.513Z,76.90
2023-02-23T12:50:53.556Z,76.70
2023-02-23T12:53:37.965Z,77.10
2023-02-23T12:56:26.425Z,76.40
2023-02-23T12:59:14.993Z,77.00
2023-02-23T13:02:08.542Z,77.70
2023-02-23T13:04:51.809Z,76.70
2023-02-23T13:07:41.960Z,76.70
2023-02-23T13:10:32.054Z,77.10
2023-02-23T13:13:36.465Z,76.60
2023-02-23T13:16:30.574Z,76.50
2023-02-23T13:19:29.326Z,76.60
2023-02-23T13:22:18.667Z,77.10
2023-02-23T13:24:49.418Z,77.00
2023-02-23T13:27:21.614Z,76.50
2023-02-23T13:29:52.660Z,76.60
2023-02-23T13:32:25.330Z,76.20
2023-02-23T13:34:56.481Z,76.60
2023-02-23T13:37:45.468Z,75.30
2023-02-23T13:40:30.978Z,75.60
2023-02-23T13:43:11.592Z,74.20
2023-02-23T13:45:54.994Z,74.80
2023-02-23T13:48:57.481Z,73.50
2023-02-23T13:51:37.909Z,73.60
2023-02-23T13:54:22.883Z,72.40
2023-02-23T13:56:56.248Z,72.30
2023-02-23T13:59:29.311Z,72.60
2023-02-23T14:01:56.889Z,72.20
2023-02-23T14:04:35.426Z,71.90
2023-02-23T14:07:12.780Z,71.70
2023-02-23T14:10:07.203Z,71.10
2023-02-23T14:12:39.515Z,70.80
2023-02-23T14:15:25.221Z,72.10
2023-02-23T14:18:21.014Z,72.40
2023-02-23T14:21:09.652Z,73.20
2023-02-23T14:24:08.423Z,73.30
2023-02-23T14:26:41.529Z,74.30
2023-02-23T14:29:27.836Z,74.90
2023-02-23T14:32:03.564Z,75.10
2023-02-23T14:34:47.141Z,75.50
2023-02-23T14:37:39.747Z,75.60
2023-02-23T14:40:20.342Z,75.90
2023-02-23T14:42:51.932Z,76.30
2023-02-23T14:45:28.715Z,77.50
2023-02-23T14:48:01.443Z,78.30
2023-02-23T14:50:37.501Z,78.80
2023-02-23T14:53:10.640Z,79.50
2023-02-23T14:55:41.930Z,81.10
2023-02-23T14:58:33.375Z,81.50
2023-02-23T15:01:00.900Z,80.80
2023-02-23T15:03:27.743Z,81.20
2023-02-23T15:06:00.301Z,81.50
2023-02-23T15:08:29.310Z,81.80
2023-02-23T15:11:04.194Z,81.10
2023-02-23T15:16:09.759Z,81.20
2023-02-23T15:19:14.047Z,81.70
2023-02-23T15:21:59.185Z,81.90
2023-02-23T15:24:30.676Z,82.10
2023-02-23T15:26:58.109Z,82.20
2023-02-23T15:29:31.072Z,82.30
2023-02-23T15:32:17.903Z,81.90
2023-02-23T15:34:45.547Z,82.50
2023-02-23T15:37:15.653Z,82.40
2023-02-23T15:39:53.129Z,83.30
2023-02-23T15:42:28.043Z,83.50
2023-02-23T15:45:04.536Z,83.30
2023-02-23T15:47:34.844Z,82.80
2023-02-23T15:50:36.577Z,82.80
2023-02-23T15:53:13.674Z,83.00
2023-02-23T15:55:43.685Z,82.80
2023-02-23T15:58:19.068Z,84.10
2023-02-23T16:00:51.426Z,83.70
2023-02-23T16:03:33.658Z,83.40
2023-02-23T16:06:06.663Z,84.10
2023-02-23T16:08:35.905Z,84.30
2023-02-23T16:11:16.056Z,84.30
2023-02-23T16:13:45.275Z,84.90
2023-02-23T16:16:20.377Z,85.20
2023-02-23T16:18:52.996Z,85.30
2023-02-23T16:21:24.944Z,85.70
2023-02-23T16:23:54.384Z,85.90
2023-02-23T16:26:37.265Z,86.50
2023-02-23T16:29:05.079Z,86.80
2023-02-23T16:31:43.473Z,87.20
2023-02-23T16:34:30.252Z,87.30
2023-02-23T16:37:03.476Z,87.20
2023-02-23T16:39:33.452Z,87.20
2023-02-23T16:42:00.553Z,87.20
2023-02-23T16:44:41.353Z,87.10
2023-02-23T16:47:09.457Z,87.00
2023-02-23T16:49:36.170Z,86.80
2023-02-23T16:52:15.693Z,86.80
2023-02-23T16:54:42.447Z,86.90
2023-02-23T16:57:22.437Z,86.90
2023-02-23T16:59:51.008Z,87.10
2023-02-23T17:02:19.089Z,87.30
2023-02-23T17:04:49.748Z,87.40
2023-02-23T17:07:18.838Z,87.30
2023-02-23T17:09:45.692Z,87.40
2023-02-23T17:12:18.386Z,87.80
2023-02-23T17:14:49.233Z,88.20
2023-02-23T17:17:17.872Z,88.50
2023-02-23T17:19:46.565Z,88.40
2023-02-23T17:22:13.838Z,88.30
2023-02-23T17:24:41.891Z,88.40
2023-02-23T17:27:08.920Z,88.40
2023-02-23T17:29:35.679Z,88.90
2023-02-23T17:32:02.760Z,88.90
2023-02-23T17:34:30.313Z,89.10
2023-02-23T17:36:57.656Z,89.30
2023-02-23T17:39:28.119Z,89.30
2023-02-23T17:41:55.502Z,89.40
2023-02-23T17:44:22.200Z,89.80
2023-02-23T17:46:48.998Z,89.90
2023-02-23T17:49:15.841Z,90.10
2023-02-23T17:51:42.672Z,90.10
2023-02-23T17:54:09.429Z,90.10
2023-02-23T17:56:36.296Z,90.30
2023-02-23T17:59:03.074Z,90.30
2023-02-23T18:01:29.844Z,90.30
2023-02-23T18:03:58.538Z,90.40
2023-02-23T18:06:25.792Z,90.30
2023-02-23T18:08:52.523Z,90.30
2023-02-23T18:11:19.797Z,90.10
2023-02-23T18:13:48.066Z,90.10
2023-02-23T18:16:15.967Z,90.10
2023-02-23T18:18:46.034Z,90.10
2023-02-23T18:21:19.280Z,90.00
2023-02-23T18:23:46.200Z,90.00
2023-02-23T18:26:16.548Z,90.10
2023-02-23T18:28:45.650Z,90.10
2023-02-23T18:31:21.650Z,90.00
2023-02-23T18:33:55.226Z,89.90
2023-02-23T18:36:23.835Z,89.60
2023-02-23T18:38:50.845Z,89.50
2023-02-23T18:41:18.676Z,89.30
2023-02-23T18:43:45.491Z,89.30
2023-02-23T18:46:13.767Z,89.20
2023-02-23T18:48:41.315Z,89.10
2023-02-23T18:51:12.307Z,89.00
2023-02-23T18:53:39.065Z,88.90
2023-02-23T18:56:14.766Z,89.00
2023-02-23T18:58:44.509Z,89.00
2023-02-23T19:01:17.844Z,89.00
2023-02-23T19:03:45.271Z,89.00
2023-02-23T19:06:13.188Z,89.00
2023-02-23T19:08:41.934Z,89.00
2023-02-23T19:11:09.761Z,89.00
2023-02-23T19:13:38.082Z,89.00
2023-02-23T19:16:06.485Z,89.10
2023-02-23T19:18:35.503Z,89.10
2023-02-23T19:21:03.697Z,89.10
2023-02-23T19:23:30.685Z,89.20
2023-02-23T19:25:58.883Z,89.20
2023-02-23T19:28:27.184Z,89.40
2023-02-23T19:31:05.796Z,89.50
2023-02-23T19:33:33.314Z,89.50
2023-02-23T19:36:01.389Z,89.60
2023-02-23T19:38:29.127Z,89.50
2023-02-23T19:40:57.206Z,89.50
2023-02-23T19:43:24.798Z,89.50
2023-02-23T19:45:51.828Z,89.60
2023-02-23T19:48:18.675Z,89.60
2023-02-23T19:50:47.966Z,89.70
2023-02-23T19:53:16.026Z,89.90
2023-02-23T19:55:43.348Z,90.20
2023-02-23T19:58:10.226Z,90.10
2023-02-23T20:00:37.356Z,90.20
2023-02-23T20:03:07.281Z,90.70
2023-02-23T20:05:42.293Z,90.60
2023-02-23T20:08:09.584Z,90.40
2023-02-23T20:10:38.911Z,90.50
2023-02-23T20:13:05.996Z,90.60
2023-02-23T20:15:32.747Z,90.80
2023-02-23T20:17:59.463Z,90.60
2023-02-23T20:20:29.078Z,90.90
2023-02-23T20:22:56.014Z,91.00
2023-02-23T20:25:23.322Z,91.00
2023-02-23T20:27:50.702Z,90.60
2023-02-23T20:30:18.214Z,90.20
2023-02-23T20:32:45.661Z,90.30
2023-02-23T20:35:15.145Z,90.60
2023-02-23T20:37:42.545Z,91.50
2023-02-23T20:40:19.980Z,91.70
2023-02-23T20:42:48.043Z,92.40
2023-02-23T20:45:18.372Z,92.30
2023-02-23T20:47:45.973Z,92.30
2023-02-23T20:50:14.192Z,91.60
2023-02-23T20:52:44.588Z,91.30
2023-02-23T20:58:54.219Z,92.20
2023-02-23T21:01:24.053Z,92.20
2023-02-23T21:03:52.309Z,92.50
2023-02-23T21:06:20.545Z,92.30
2023-02-23T21:08:48.955Z,92.30
2023-02-23T21:11:17.415Z,92.20
2023-02-23T21:13:44.966Z,92.10
2023-02-23T21:16:16.978Z,92.20
2023-02-23T21:18:44.203Z,92.30
2023-02-23T21:21:15.354Z,92.40
2023-02-23T21:23:43.619Z,92.60
2023-02-23T21:26:13.902Z,92.80
2023-02-23T21:28:44.576Z,93.10
2023-02-23T21:31:12.910Z,93.50
2023-02-23T21:33:41.244Z,93.30
2023-02-23T21:36:12.584Z,93.10
2023-02-23T21:38:44.019Z,93.30
2023-02-23T21:41:12.411Z,93.30
2023-02-23T21:43:41.396Z,93.10
2023-02-23T21:46:10.372Z,93.00
2023-02-23T21:48:37.234Z,93.20
2023-02-23T21:51:07.229Z,93.00
2023-02-23T21:53:35.132Z,92.60
2023-02-23T21:56:06.931Z,92.90
2023-02-23T21:58:33.876Z,93.00
2023-02-23T22:01:00.644Z,93.10
2023-02-23T22:03:29.260Z,93.10
2023-02-23T22:05:56.188Z,93.10
2023-02-23T22:08:22.911Z,93.10
2023-02-23T22:10:49.668Z,92.90
2023-02-23T22:13:16.397Z,92.90
2023-02-23T22:15:43.240Z,92.90
2023-02-23T22:18:14.043Z,93.10
2023-02-23T22:20:45.230Z,93.20
2023-02-23T22:23:11.967Z,93.10
2023-02-23T22:25:38.737Z,93.00
2023-02-23T22:28:08.937Z,92.90
2023-02-23T22:30:35.682Z,93.00
2023-02-23T22:33:02.610Z,93.00
2023-02-23T22:35:29.457Z,93.20
2023-02-23T22:37:56.171Z,93.10
2023-02-23T22:40:23.929Z,93.20
2023-02-23T22:42:50.736Z,93.30
2023-02-23T22:45:18.116Z,93.40
2023-02-23T22:47:45.114Z,93.50
2023-02-23T22:50:19.014Z,93.50
2023-02-23T22:52:46.817Z,93.30
2023-02-23T22:55:13.609Z,93.30
2023-02-23T22:57:40.536Z,93.10
2023-02-23T23:00:10.366Z,93.10
2023-02-23T23:02:37.169Z,93.10
2023-02-23T23:05:04.334Z,92.90
2023-02-23T23:07:31.433Z,93.10
2023-02-23T23:09:58.688Z,93.40
2023-02-23T23:12:27.844Z,93.40
2023-02-23T23:15:01.305Z,93.80
2023-02-23T23:17:31.717Z,93.70
2023-02-23T23:20:00.288Z,94.10
2023-02-23T23:22:27.548Z,94.40
2023-02-23T23:24:54.348Z,94.50
2023-02-23T23:27:21.482Z,94.50
2023-02-23T23:29:48.909Z,94.40
2023-02-23T23:32:18.458Z,94.30
2023-02-23T23:34:47.944Z,94.00
2023-02-23T23:37:16.815Z,93.90
2023-02-23T23:39:43.972Z,93.80
2023-02-23T23:42:10.946Z,93.70
2023-02-23T23:44:37.926Z,93.70
2023-02-23T23:47:05.360Z,93.60
2023-02-23T23:49:37.732Z,93.70
2023-02-23T23:52:05.341Z,93.60
2023-02-23T23:54:37.456Z,93.70
2023-02-23T23:57:05.749Z,93.70
2023-02-23T23:59:34.424Z,93.70
